Time;durP1;ratioP1;P1;durP2;ratioP2;P2;SDS_P1;SDS_P2;PMS_P1;PMS_P2;Temp;Humidity;BMP_temperature;BMP_pressure;BME280_temperature;BME280_humidity;BME280_pressure;Samples;Min_cycle;Max_cycle;Signal;HPM_P1;HPM_P2
2023/12/03 00:08:38;;;;;;;;;;;0.90;99.90;;;;;;6187279;23;20027;-95
2023/12/03 00:19:11;;;;;;;;;;;0.70;99.90;;;;;;5872468;24;20021;-95
2023/12/03 00:21:37;;;;;;;2.53;2.33;;;;;;;;;;5893869;23;20027;-93
2023/12/03 00:24:04;;;;;;;4.30;3.28;;;;;;;;;;6034368;23;20468;-91
2023/12/03 00:26:30;;;;;;;3.85;2.72;;;;;;;;;;6163312;23;20449;-92
2023/12/03 00:28:56;;;;;;;2.53;2.33;;;;;;;;;;6162398;23;20016;-90
2023/12/03 00:31:22;;;;;;;4.75;3.15;;;;;;;;;;6187360;23;20017;-90
2023/12/03 00:33:48;;;;;;;3.20;2.63;;;;;;;;;;6163277;23;20024;-92
2023/12/03 00:36:14;;;;;;;3.45;2.60;;;;;;;;;;6165877;23;20079;-91
2023/12/03 00:38:40;;;;;;;3.00;2.35;;;;;;;;;;6162659;23;20055;-91
2023/12/03 00:41:07;;;;;;;2.70;2.50;;;;;;;;;;6188110;23;20021;-92
2023/12/03 00:43:33;;;;;;;3.13;2.30;;;;;;;;;;6213724;23;20020;-92
2023/12/03 00:46:00;;;;;;;3.83;2.70;;;;;;;;;;6164607;23;20021;-93
2023/12/03 00:48:26;;;;;;;3.97;2.60;;;;;;;;;;6164178;23;20021;-92
2023/12/03 00:50:53;;;;;;;2.33;2.10;;;;;;;;;;6214303;23;20016;-91
2023/12/03 00:53:19;;;;;;;2.40;2.20;;;;;;;;;;6164552;23;20029;-91
2023/12/03 00:55:45;;;;;;;2.65;2.10;;;;;;;;;;6165190;23;20044;-89
2023/12/03 00:58:11;;;;;;;2.45;2.25;;;;;;;;;;6214731;23;20335;-94
2023/12/03 01:00:37;;;;;;;3.28;2.13;;;;;;;;;;6165276;23;20013;-90
2023/12/03 01:03:03;;;;;;;4.53;2.42;;;;;;;;;;6165017;23;20020;-90
2023/12/03 01:05:29;;;;;;;2.63;2.13;;;;;;;;;;6165245;23;20454;-90
2023/12/03 01:07:55;;;;;;;3.38;2.78;;;;;;;;;;6166825;23;20024;-88
2023/12/03 01:10:21;;;;;;;4.82;2.30;;;;;;;;;;6218675;23;20116;-90
2023/12/03 01:12:47;;;;;;;2.33;2.00;;;;;;;;;;6216621;23;20020;-90
2023/12/03 01:15:13;;;;;;;3.80;2.90;;;;;;;;;;6214150;23;20074;-90
2023/12/03 01:17:40;;;;;;;2.90;2.25;;;;;;;;;;6214643;23;20025;-92
2023/12/03 01:20:07;;;;;;;4.45;2.13;;;;;;;;;;6164219;23;20016;-91
2023/12/03 01:22:33;;;;;;;2.97;2.30;;;;;;;;;;6189519;23;20024;-90
2023/12/03 01:24:59;;;;;;;3.25;2.63;;;;;;;;;;6165396;23;20028;-92
2023/12/03 01:27:25;;;;;;;2.42;2.25;;;;;;;;;;6214426;23;20021;-94
2023/12/03 01:29:54;;;;;;;3.08;2.47;;;;;;;;;;6164734;23;20462;-91
2023/12/03 01:32:20;;;;;;;2.65;2.40;;;;;;;;;;6214419;23;20027;-90
2023/12/03 01:34:49;;;;;;;4.35;2.50;;;;;;;;;;6165118;23;20021;-91
2023/12/03 01:37:18;;;;;;;3.17;2.50;;;;;;;;;;6166239;23;20038;-92
2023/12/03 01:39:44;;;;;;;5.57;3.17;;;;;;;;;;6215687;23;20023;-93
2023/12/03 01:42:10;;;;;;;3.97;3.28;;;;;;;;;;6216892;23;20099;-93
2023/12/03 01:44:36;;;;;;;4.32;3.30;;;;;;;;;;6242155;23;20035;-92
2023/12/03 01:47:06;;;;;;;4.20;3.22;;;;;;;;;;6168795;23;20028;-90
2023/12/03 01:49:32;;;;;;;4.18;3.08;;;;;;;;;;6169088;23;20046;-92
2023/12/03 01:51:59;;;;;;;3.08;2.35;;;;;;;;;;6218860;23;20025;-89
2023/12/03 01:54:27;;;;;;;4.72;3.03;;;;;;;;;;6217814;23;20020;-93
2023/12/03 01:56:54;;;;;;;3.47;2.90;;;;;;;;;;6216646;23;20024;-93
2023/12/03 01:59:23;;;;;;;13.68;4.30;;;;;;;;;;6217986;23;20465;-90
2023/12/03 02:01:49;;;;;;;3.22;2.33;;;;;;;;;;6219890;23;20027;-95
2023/12/03 02:04:15;;;;;;;4.13;3.45;;;;;;;;;;6220671;23;20059;-90
2023/12/03 02:06:41;;;;;;;2.53;2.30;;;;;;;;;;6220419;23;20024;-90
2023/12/03 02:09:07;;;;;;;2.92;2.65;;;;;;;;;;6169846;23;20057;-91
2023/12/03 02:11:34;;;;;;;3.22;2.53;;;;;;;;;;6242123;23;20120;-91
2023/12/03 02:14:00;;;;;;;4.60;2.72;;;;;;;;;;6216452;23;20351;-90
2023/12/03 02:16:29;;;;;;;2.58;2.17;;;;;;;;;;6169221;23;20027;-92
2023/12/03 02:18:55;;;;;;;3.22;2.47;;;;;;;;;;6222262;23;20020;-90
2023/12/03 02:21:21;;;;;;;3.05;2.42;;;;;;;;;;6224254;23;20028;-91
2023/12/03 02:23:47;;;;;;;3.30;2.80;;;;;;;;;;6220898;23;20023;-91
2023/12/03 02:26:13;;;;;;;2.70;2.40;;;;;;;;;;6219740;23;20025;-91
2023/12/03 02:28:41;;;;;;;2.50;2.30;;;;;;;;;;6168472;23;20020;-94
2023/12/03 02:31:08;;;;;;;3.22;2.47;;;;;;;;;;6169415;23;20052;-93
2023/12/03 02:33:35;;;;;;;4.50;2.80;;;;;;;;;;6218625;23;20021;-89
2023/12/03 02:36:01;;;;;;;3.35;2.55;;;;;;;;;;6223495;23;20017;-90
2023/12/03 02:38:27;;;;;;;5.57;2.75;;;;;;;;;;6198490;23;20055;-90
2023/12/03 02:40:56;;;;;;;2.88;2.60;;;;;;;;;;6203055;23;20027;-89
2023/12/03 02:43:22;;;;;;;2.50;2.30;;;;;;;;;;6225609;23;20023;-92
2023/12/03 02:45:49;;;;;;;3.75;2.53;;;;;;;;;;6227962;23;20034;-91
2023/12/03 02:48:15;;;;;;;3.33;2.72;;;;;;;;;;6227586;23;20020;-91
2023/12/03 02:50:41;;;;;;;3.90;3.50;;;;;;;;;;6198520;23;20528;-88
2023/12/03 02:53:08;;;;;;;4.50;2.85;;;;;;;;;;6223338;23;20035;-95
2023/12/03 02:55:34;;;;;;;4.63;3.08;;;;;;;;;;6223358;23;20024;-92
2023/12/03 02:58:00;;;;;;;3.25;2.63;;;;;;;;;;6222848;23;20024;-90
2023/12/03 03:00:26;;;;;;;3.55;2.95;;;;;;;;;;6173636;23;20105;-90
2023/12/03 03:02:53;;;;;;;4.22;3.22;;;;;;;;;;6172942;23;20024;-89
2023/12/03 03:05:19;;;;;;;2.70;2.45;;;;;;;;;;6222559;23;20024;-90
2023/12/03 03:07:45;;;;;;;7.32;2.72;;;;;;;;;;6174875;23;20027;-90
2023/12/03 03:10:11;;;;;;;4.10;2.47;;;;;;;;;;6174930;23;20016;-92
2023/12/03 03:12:37;;;;;;;2.60;2.40;;;;;;;;;;6224964;23;20024;-92
2023/12/03 03:15:04;;;;;;;3.33;2.50;;;;;;;;;;6224247;23;20020;-92
2023/12/03 03:17:30;;;;;;;3.33;2.33;;;;;;;;;;6225398;23;20028;-90
2023/12/03 03:19:56;;;;;;;2.90;2.60;;;;;;;;;;6224565;23;20020;-92
2023/12/03 03:22:22;;;;;;;3.67;2.80;;;;;;;;;;6222607;23;20528;-90
2023/12/03 03:24:48;;;;;;;4.00;2.85;;;;;;;;;;6221966;23;20413;-92
2023/12/03 03:27:14;;;;;;;2.67;2.47;;;;;;;;;;6196723;23;20056;-92
2023/12/03 03:29:40;;;;;;;3.88;2.60;;;;;;;;;;6220643;23;20078;-91
2023/12/03 03:32:06;;;;;;;3.63;3.25;;;;;;;;;;6196280;23;20027;-91
2023/12/03 03:34:32;;;;;;;3.22;2.58;;;;;;;;;;6221308;23;20087;-92
2023/12/03 03:36:58;;;;;;;4.13;3.13;;;;;;;;;;6221588;23;20067;-90
2023/12/03 03:39:25;;;;;;;4.60;3.08;;;;;;;;;;6172642;23;20089;-89
2023/12/03 03:41:51;;;;;;;3.25;2.92;;;;;;;;;;6172860;23;20027;-94
2023/12/03 03:44:17;;;;;;;3.58;2.72;;;;;;;;;;6222415;23;20017;-90
2023/12/03 03:46:43;;;;;;;3.70;3.30;;;;;;;;;;6222450;23;20020;-92
2023/12/03 03:49:09;;;;;;;5.28;3.42;;;;;;;;;;6222402;23;20035;-92
2023/12/03 03:51:35;;;;;;;3.50;2.60;;;;;;;;;;6222628;23;20020;-94
2023/12/03 03:54:01;;;;;;;3.90;3.35;;;;;;;;;;6221731;23;20457;-94
2023/12/03 03:56:27;;;;;;;5.25;3.95;;;;;;;;;;6196232;23;20090;-95
2023/12/03 03:58:53;;;;;;;3.85;3.05;;;;;;;;;;6171744;23;20472;-93
2023/12/03 04:01:19;;;;;;;5.32;3.42;;;;;;;;;;6196313;23;20016;-91
2023/12/03 04:03:45;;;;;;;5.22;4.05;;;;;;;;;;6220323;23;20028;-94
2023/12/03 04:06:12;;;;;;;5.60;4.15;;;;;;;;;;6171952;23;20020;-92
2023/12/03 04:08:39;;;;;;;6.90;4.05;;;;;;;;;;6221737;23;20051;-92
2023/12/03 04:11:05;;;;;;;5.50;4.53;;;;;;;;;;6221618;23;20024;-91
2023/12/03 04:13:31;;;;;;;5.43;4.20;;;;;;;;;;6221409;23;20074;-93
2023/12/03 04:15:58;;;;;;;5.18;4.30;;;;;;;;;;6246746;23;20020;-92
2023/12/03 04:18:24;;;;;;;5.50;3.58;;;;;;;;;;6221136;23;20020;-93
2023/12/03 04:20:50;;;;;;;5.75;4.32;;;;;;;;;;6196499;23;20020;-91
2023/12/03 04:23:16;;;;;;;5.50;4.72;;;;;;;;;;6220990;23;20031;-93
2023/12/03 04:25:42;;;;;;;5.80;4.50;;;;;;;;;;6219797;23;20397;-93
2023/12/03 04:28:09;;;;;;;6.20;4.55;;;;;;;;;;6219040;23;20063;-91
2023/12/03 04:30:35;;;;;;;7.70;4.75;;;;;;;;;;6219024;23;20023;-92
2023/12/03 04:33:01;;;;;;;6.40;4.78;;;;;;;;;;6218784;23;20024;-93
2023/12/03 04:35:27;;;;;;;6.88;5.22;;;;;;;;;;6218920;23;20030;-94
2023/12/03 04:37:53;;;;;;;6.47;3.92;;;;;;;;;;6243903;23;20024;-94
2023/12/03 04:40:19;;;;;;;8.07;5.80;;;;;;;;;;6169575;23;20020;-94
2023/12/03 04:42:45;;;;;;;8.15;6.43;;;;;;;;;;6169501;23;20016;-92
2023/12/03 04:45:12;;;;;;;13.40;6.32;;;;;;;;;;6219309;23;20024;-92
2023/12/03 04:47:38;;;;;;;6.28;5.30;;;;;;;;;;6195481;23;20027;-95
2023/12/03 04:50:05;;;;;;;10.52;6.47;;;;;;;;;;6170825;23;20024;-93
2023/12/03 04:52:31;;;;;;;9.27;6.20;;;;;;;;;;6224623;23;20031;-92
2023/12/03 04:54:57;;;;;;;10.23;6.85;;;;;;;;;;6181833;23;20027;-91
2023/12/03 04:57:24;;;;;;;10.07;7.07;;;;;;;;;;6206723;23;20020;-89
2023/12/03 04:59:50;;;;;;;11.00;6.38;;;;;;;;;;6206784;23;20024;-90
2023/12/03 05:02:16;;;;;;;8.52;6.15;;;;;;;;;;6231758;23;20050;-89
2023/12/03 05:04:42;;;;;;;10.05;6.18;;;;;;;;;;6178974;23;20075;-89
2023/12/03 05:07:15;;;;;;;11.10;6.72;;;;;;;;;;6181520;23;20104;-89
2023/12/03 05:09:41;;;;;;;8.40;6.60;;;;;;;;;;6231527;23;20016;-90
2023/12/03 05:12:17;;;;;;;10.80;6.82;;;;;;;;;;6258084;23;20027;-88
2023/12/03 05:14:51;;;;;;;11.05;7.65;;;;;;;;;;6209341;23;20127;-89
2023/12/03 05:41:41;;;;;;;60.90;11.75;;;;;;;;;;6088078;23;20053;-96
2023/12/03 05:44:08;;;;;;;69.28;9.93;;;;;;;;;;6133942;23;20021;-90
2023/12/03 05:46:40;;;;;;;44.03;10.45;;;;;;;;;;6162550;23;20199;-95
2023/12/03 05:49:08;;;;;;;49.75;10.93;;;;;;;;;;6212149;23;20063;-90
2023/12/03 05:51:34;;;;;;;59.35;10.10;;;;;;;;;;6219475;23;20103;-92
2023/12/03 05:54:00;;;;;;;73.60;13.68;;;;;;;;;;6173592;23;20024;-96
2023/12/03 05:56:26;;;;;;;80.35;16.45;;;;;;;;;;6197204;23;20016;-93
2023/12/03 05:58:52;;;;;;;118.20;15.85;;;;;;;;;;6223488;23;20075;-91
2023/12/03 06:01:23;;;;;;;163.75;20.05;;;;;;;;;;6196811;23;20021;-94
2023/12/03 06:03:49;;;;;;;119.93;17.95;;;;;;;;;;6220167;23;20024;-96
2023/12/03 06:06:15;;;;;;;85.18;16.77;;;;;;;;;;6220848;23;20027;-95
2023/12/03 06:08:41;;;;;;;110.35;17.42;;;;;;;;;;6233416;23;20112;-88
2023/12/03 06:11:07;;;;;;;272.15;24.80;;;;;;;;;;6206880;23;20031;-89
2023/12/03 06:13:34;;;;;;;167.60;23.88;;;;;;;;;;6232206;23;20027;-90
2023/12/03 06:16:00;;;;;;;194.52;21.63;;;;;;;;;;6223415;23;20050;-87
2023/12/03 06:18:26;;;;;;;178.35;24.55;;;;;;;;;;6221934;23;20016;-89
2023/12/03 06:20:52;;;;;;;235.48;26.50;;;;;;;;;;6220133;23;20016;-92
2023/12/03 06:23:18;;;;;;;157.98;23.80;;;;;;;;;;6198727;23;20036;-90
2023/12/03 06:25:44;;;;;;;199.05;24.85;;;;;;;;;;6227114;23;20050;-91
2023/12/03 06:28:11;;;;;;;182.40;25.25;;;;;;;;;;6233610;23;20020;-88
2023/12/03 06:30:37;;;;;;;115.85;20.35;;;;;;;;;;6260360;23;20071;-89
2023/12/03 06:33:04;;;;;;;131.60;23.08;;;;;;;;;;6234576;23;20469;-89
2023/12/03 06:35:30;;;;;;;147.85;21.40;;;;;;;;;;6235070;23;20075;-90
2023/12/03 06:37:56;;;;;;;157.95;22.00;;;;;;;;;;6234996;23;20020;-88
2023/12/03 06:40:22;;;;;;;101.18;19.98;;;;;;;;;;6234403;23;20031;-88
2023/12/03 06:42:48;;;;;;;127.72;21.55;;;;;;;;;;6233438;23;20024;-88
2023/12/03 06:45:15;;;;;;;99.32;22.38;;;;;;;;;;6232275;23;20021;-88
2023/12/03 06:47:42;;;;;;;66.07;16.50;;;;;;;;;;6209730;23;20025;-89
2023/12/03 06:50:16;;;;;;;157.18;25.70;;;;;;;;;;6233320;23;20024;-90
2023/12/03 06:52:43;;;;;;;79.75;18.63;;;;;;;;;;6232637;23;20043;-88
2023/12/03 06:55:09;;;;;;;101.97;19.23;;;;;;;;;;6234104;23;20416;-89
2023/12/03 06:57:37;;;;;;;111.47;23.63;;;;;;;;;;6233169;23;20020;-88
2023/12/03 07:00:04;;;;;;;182.18;29.35;;;;;;;;;;6233153;23;20020;-89
2023/12/03 07:02:31;;;;;;;112.53;22.75;;;;;;;;;;6233428;23;20053;-88
2023/12/03 07:04:57;;;;;;;91.72;21.85;;;;;;;;;;6233766;23;20023;-89
2023/12/03 07:07:26;;;;;;;128.23;23.42;;;;;;;;;;6232373;23;20076;-88
2023/12/03 07:10:02;;;;;;;122.47;22.67;;;;;;;;;;6219250;23;20098;-88
2023/12/03 07:12:28;;;;;;;150.52;30.90;;;;;;;;;;6258981;23;20028;-88
2023/12/03 07:15:00;;;;;;;111.95;21.42;;;;;;;;;;6233681;23;20047;-88
2023/12/03 07:17:32;;;;;;;63.90;19.85;;;;;;;;;;6227745;23;20055;-88
2023/12/03 07:20:09;;;;;;;179.20;28.52;;;;;;;;;;6186752;23;20100;-88
2023/12/03 07:22:42;;;;;;;124.13;24.65;;;;;;;;;;6260022;23;20069;-88
2023/12/03 07:25:08;;;;;;;104.80;23.60;;;;;;;;;;6232564;23;20025;-89
2023/12/03 07:27:34;;;;;;;127.20;28.00;;;;;;;;;;6230737;23;20020;-88
2023/12/03 07:30:00;;;;;;;97.10;25.08;;;;;;;;;;6229044;23;20024;-89
2023/12/03 07:32:26;;;;;;;101.43;23.75;;;;;;;;;;6228854;23;20028;-89
2023/12/03 07:34:53;;;;;;;83.90;21.15;;;;;;;;;;6228916;23;20047;-90
2023/12/03 07:37:19;;;;;;;116.30;25.38;;;;;;;;;;6230882;23;20059;-90
2023/12/03 07:39:45;;;;;;;93.88;23.10;;;;;;;;;;6231942;23;20035;-89
2023/12/03 07:42:11;;;;;;;81.60;21.33;;;;;;;;;;6231814;23;20055;-92
2023/12/03 07:44:37;;;;;;;79.57;23.52;;;;;;;;;;6229769;23;20020;-92
2023/12/03 07:47:03;;;;;;;76.97;21.08;;;;;;;;;;6229083;23;20024;-92
2023/12/03 07:49:29;;;;;;;67.32;19.45;;;;;;;;;;6177388;23;20016;-92
2023/12/03 07:51:56;;;;;;;136.13;27.35;;;;;;;;;;6230788;23;20024;-96
2023/12/03 07:54:22;;;;;;;88.90;23.35;;;;;;;;;;6229475;23;20058;-95
2023/12/03 07:56:48;;;;;;;90.30;25.63;;;;;;;;;;6226683;23;20530;-95
2023/12/03 07:59:15;;;;;;;81.18;20.63;;;;;;;;;;6223362;23;20020;-94
2023/12/03 08:01:41;;;;;;;93.10;22.30;;;;;;;;;;6223053;23;20020;-95
2023/12/03 08:04:07;;;;;;;57.85;17.30;;;;;;;;;;6220584;23;20449;-92
2023/12/03 08:06:33;;;;;;;90.90;21.50;;;;;;;;;;6197222;23;20020;-96
2023/12/03 08:08:59;;;;;;;73.95;18.63;;;;;;;;;;6222373;23;20027;-91
2023/12/03 08:11:26;;;;;;;66.00;18.50;;;;;;;;;;6220962;23;20102;-94
2023/12/03 08:13:55;;;;;;;73.18;21.10;;;;;;;;;;6220408;23;20027;-91
2023/12/03 08:16:21;;;;;;;62.88;15.98;;;;;;;;;;6219133;23;20083;-91
2023/12/03 08:18:47;;;;;;;42.45;13.70;;;;;;;;;;6194230;23;20020;-93
2023/12/03 08:21:13;;;;;;;31.48;12.77;;;;;;;;;;6220333;23;20043;-95
2023/12/03 08:23:40;;;;;;;41.15;12.70;;;;;;;;;;6200132;23;20155;-90
2023/12/03 08:26:06;;;;;;;37.33;12.93;;;;;;;;;;6199890;23;20121;-90
2023/12/03 08:28:32;;;;;;;39.25;14.77;;;;;;;;;;6196408;23;20103;-90
2023/12/03 08:30:59;;;;;;;65.25;18.02;;;;;;;;;;6220813;23;20016;-90
2023/12/03 08:33:25;;;;;;;49.65;16.60;;;;;;;;;;6220842;23;20528;-95
2023/12/03 08:35:51;;;;;;;48.28;15.55;;;;;;;;;;6196943;23;20072;-96
2023/12/03 08:38:17;;;;;;;48.58;17.50;;;;;;;;;;6172036;23;20460;-96
2023/12/03 08:40:43;;;;;;;48.10;15.27;;;;;;;;;;6220648;23;20350;-91
2023/12/03 08:43:09;;;;;;;47.40;16.98;;;;;;;;;;6194332;23;20028;-94
2023/12/03 08:45:35;;;;;;;44.38;19.17;;;;;;;;;;6169362;23;20103;-92
2023/12/03 08:48:01;;;;;;;49.00;17.02;;;;;;;;;;6193080;23;20348;-92
2023/12/03 08:50:28;;;;;;;54.85;17.17;;;;;;;;;;6169455;23;20054;-90
2023/12/03 08:53:00;;;;;;;51.30;17.70;;;;;;;;;;6218354;23;20020;-92
2023/12/03 08:55:26;;;;;;;57.65;18.63;;;;;;;;;;6218825;23;20098;-93
2023/12/03 08:57:52;;;;;;;56.65;18.15;;;;;;;;;;6218756;23;20024;-92
2023/12/03 09:00:19;;;;;;;49.80;18.27;;;;;;;;;;6218444;23;20020;-93
2023/12/03 09:02:45;;;;;;;49.83;17.67;;;;;;;;;;6218384;23;20106;-91
2023/12/03 09:05:11;;;;;;;62.38;20.08;;;;;;;;;;6218510;23;20016;-93
2023/12/03 09:07:37;;;;;;;62.75;21.33;;;;;;;;;;6218417;23;20021;-93
2023/12/03 09:10:04;;;;;;;58.08;19.88;;;;;;;;;;6193645;23;20023;-91
2023/12/03 09:12:30;;;;;;;52.20;19.55;;;;;;;;;;6218009;23;20024;-93
2023/12/03 09:14:56;;;;;;;58.45;20.88;;;;;;;;;;6218411;23;20020;-92
2023/12/03 09:17:22;;;;;;;65.18;20.38;;;;;;;;;;6168895;23;20016;-92
2023/12/03 09:19:49;;;;;;;55.92;21.85;;;;;;;;;;6218736;23;20104;-92
2023/12/03 09:22:15;;;;;;;57.15;20.45;;;;;;;;;;6218086;23;20051;-93
2023/12/03 09:24:41;;;;;;;54.92;20.98;;;;;;;;;;6194703;23;20016;-94
2023/12/03 09:27:07;;;;;;;61.67;22.42;;;;;;;;;;6196048;23;20353;-94
2023/12/03 09:29:34;;;;;;;54.83;21.92;;;;;;;;;;6221766;23;20067;-92
2023/12/03 09:32:00;;;;;;;53.53;21.65;;;;;;;;;;6219963;23;20475;-93
2023/12/03 09:34:26;;;;;;;52.65;22.23;;;;;;;;;;6219633;23;20016;-92
2023/12/03 09:36:52;;;;;;;56.50;24.13;;;;;;;;;;6221112;23;20028;-91
2023/12/03 09:39:18;;;;;;;56.08;23.02;;;;;;;;;;6197061;23;20016;-93
2023/12/03 09:41:51;;;;;;;51.75;23.10;;;;;;;;;;6195654;23;20062;-93
2023/12/03 09:44:24;;;;;;;51.90;24.58;;;;;;;;;;6171233;23;20024;-96
2023/12/03 09:46:50;;;;;;;50.72;22.30;;;;;;;;;;6220957;23;20024;-96
2023/12/03 09:49:19;;;;;;;53.40;23.02;;;;;;;;;;6217849;23;20072;-95
2023/12/03 09:51:45;;;;;;;59.17;22.88;;;;;;;;;;6221439;23;20080;-94
2023/12/03 09:54:11;;;;;;;47.30;23.80;;;;;;;;;;6175562;23;20090;-96
2023/12/03 09:56:38;;;;;;;50.63;24.23;;;;;;;;;;6225557;23;20349;-94
2023/12/03 09:59:05;;;;;;;54.80;24.60;;;;;;;;;;6227007;23;20068;-96
2023/12/03 10:01:32;;;;;;;50.92;22.55;;;;;;;;;;6229532;23;20044;-93
2023/12/03 10:03:58;;;;;;;43.70;20.70;;;;;;;;;;6255050;23;20067;-95
2023/12/03 10:06:25;;;;;;;48.72;24.33;;;;;;;;;;6230296;23;20092;-94
2023/12/03 10:08:52;;;;;;;41.88;22.25;;;;;;;;;;6228358;23;20502;-96
2023/12/03 10:11:21;;;;;;;51.42;23.98;;;;;;;;;;6227996;23;20028;-94
2023/12/03 10:13:50;;;;;;;44.13;23.48;;;;;;;;;;6227634;23;20017;-95
2023/12/03 10:16:16;;;;;;;50.13;23.23;;;;;;;;;;6176485;23;20344;-94
2023/12/03 10:18:43;;;;;;;46.65;24.90;;;;;;;;;;6224832;23;20074;-94
2023/12/03 10:21:10;;;;;;;54.55;25.23;;;;;;;;;;6224192;23;20090;-95
2023/12/03 10:23:36;;;;;;;51.40;25.58;;;;;;;;;;6237880;23;20020;-94
2023/12/03 10:26:10;;;;;;;47.75;24.55;;;;;;;;;;6180569;23;20082;-93
2023/12/03 10:28:36;;;;;;;47.13;25.48;;;;;;;;;;6224547;23;20020;-93
2023/12/03 10:31:02;;;;;;;47.00;24.38;;;;;;;;;;6233481;23;20031;-93
2023/12/03 10:33:28;;;;;;;49.80;26.20;;;;;;;;;;6235233;23;20028;-93
2023/12/03 10:36:01;;;;;;;46.15;25.77;;;;;;;;;;6185684;23;20476;-93
2023/12/03 10:38:27;;;;;;;51.80;25.95;;;;;;;;;;6234350;23;20028;-93
2023/12/03 10:40:54;;;;;;;54.10;26.35;;;;;;;;;;6234316;23;20075;-93
2023/12/03 10:43:23;;;;;;;45.60;23.52;;;;;;;;;;6233737;23;20024;-92
2023/12/03 10:45:53;;;;;;;46.08;22.83;;;;;;;;;;6234493;23;20024;-93
2023/12/03 10:48:20;;;;;;;48.58;24.55;;;;;;;;;;6233829;22;20028;-95
2023/12/03 10:50:46;;;;;;;46.35;24.05;;;;;;;;;;6236342;23;20031;-92
2023/12/03 10:53:15;;;;;;;42.15;22.48;;;;;;;;;;6235012;23;20024;-93
2023/12/03 10:55:43;;;;;;;47.20;26.10;;;;;;;;;;6235639;23;20020;-95
2023/12/03 10:58:11;;;;;;;44.72;23.40;;;;;;;;;;6217006;23;20492;-96
2023/12/03 11:00:40;;;;;;;52.47;25.08;;;;;;;;;;6240780;23;20024;-94
2023/12/03 11:03:06;;;;;;;43.88;23.63;;;;;;;;;;6237930;23;20020;-93
2023/12/03 11:05:34;;;;;;;43.38;22.25;;;;;;;;;;6234956;23;20648;-94
2023/12/03 11:08:02;;;;;;;42.67;23.45;;;;;;;;;;6234428;23;20027;-93
2023/12/03 11:10:28;;;;;;;44.85;22.80;;;;;;;;;;6236840;23;20441;-95
2023/12/03 11:12:56;;;;;;;37.78;22.08;;;;;;;;;;6241879;23;20024;-95
2023/12/03 11:15:23;;;;;;;37.53;21.92;;;;;;;;;;6242909;23;20103;-92
2023/12/03 11:17:50;;;;;;;36.92;21.98;;;;;;;;;;6238675;23;20067;-93
2023/12/03 11:20:18;;;;;;;50.67;23.98;;;;;;;;;;6231881;23;20058;-91
2023/12/03 11:23:05;;;;;;;43.35;23.02;;;;;;;;;;6233282;23;20024;-92
2023/12/03 11:25:34;;;;;;;37.67;22.30;;;;;;;;;;6232612;23;20020;-91
2023/12/03 11:28:00;;;;;;;41.80;23.40;;;;;;;;;;6230980;23;20103;-92
2023/12/03 11:30:37;;;;;;;39.65;22.83;;;;;;;;;;6231301;23;20066;-94
2023/12/03 11:33:07;;;;;;;37.00;21.45;;;;;;;;;;6231816;23;20536;-93
2023/12/03 11:35:34;;;;;;;36.33;22.23;;;;;;;;;;6224585;23;20102;-93
2023/12/03 11:38:01;;;;;;;39.80;21.80;;;;;;;;;;6222905;23;20398;-89
2023/12/03 11:40:34;;;;;;;35.00;22.30;;;;;;;;;;6194122;23;20027;-90
2023/12/03 11:43:00;;;;;;;34.23;21.07;;;;;;;;;;6219278;23;20020;-90
2023/12/03 11:45:29;;;;;;;33.75;18.50;;;;;;;;;;6219225;23;20078;-90
2023/12/03 11:48:09;;;;;;;34.97;19.30;;;;;;;;;;6218874;23;20020;-91
2023/12/03 11:50:39;;;;;;;39.20;20.90;;;;;;;;;;6218916;23;20052;-91
2023/12/03 11:53:06;;;;;;;37.95;21.67;;;;;;;;;;6218526;23;20020;-90
2023/12/03 11:55:34;;;;;;;29.67;18.98;;;;;;;;;;6221355;23;20484;-96
2023/12/03 11:58:04;;;;;;;32.33;18.13;;;;;;;;;;6249353;23;20392;-96
2023/12/03 12:00:32;;;;;;;30.77;17.20;;;;;;;;;;6222206;23;20020;-95
2023/12/03 12:02:58;;;;;;;34.30;18.58;;;;;;;;;;6221435;23;20020;-92
2023/12/03 12:05:25;;;;;;;32.88;17.50;;;;;;;;;;6185549;23;20064;-91
2023/12/03 12:07:57;;;;;;;28.88;16.63;;;;;;;;;;6161024;23;20087;-95
2023/12/03 12:10:30;;;;;;;30.05;16.40;;;;;;;;;;6124594;23;20025;-91
2023/12/03 12:12:57;;;;;;;30.13;17.55;;;;;;;;;;6173247;23;20044;-89
2023/12/03 12:15:39;;;;;;;34.40;18.65;;;;;;;;;;6196835;23;20085;-90
2023/12/03 12:18:14;;;;;;;30.20;17.52;;;;;;;;;;6173618;23;20047;-89
2023/12/03 12:20:46;;;;;;;41.30;18.75;;;;;;;;;;6178381;23;20011;-90
2023/12/03 12:23:12;;;;;;;40.00;19.50;;;;;;;;;;6145878;23;20044;-91
2023/12/03 12:25:38;;;;;;;33.22;18.88;;;;;;;;;;6132503;23;20036;-92
2023/12/03 12:28:04;;;;;;;33.17;19.17;;;;;;;;;;6133162;23;20021;-91
2023/12/03 12:30:31;;;;;;;37.08;19.90;;;;;;;;;;6157272;23;20021;-92
2023/12/03 12:32:57;;;;;;;42.63;19.38;;;;;;;;;;6108401;23;20036;-90
2023/12/03 12:35:24;;;;;;;32.13;18.25;;;;;;;;;;6162954;23;20359;-91
2023/12/03 12:38:01;;;;;;;31.65;17.98;;;;;;;;;;6218600;23;20028;-90
2023/12/03 12:40:27;;;;;;;31.23;17.30;;;;;;;;;;6218479;23;20469;-92
2023/12/03 12:43:05;;;;;;;37.45;18.80;;;;;;;;;;6218574;23;20474;-91
2023/12/03 12:45:32;;;;;;;34.25;18.85;;;;;;;;;;6220001;23;20020;-92
2023/12/03 12:47:58;;;;;;;31.58;18.90;;;;;;;;;;6222701;23;20398;-92
2023/12/03 12:50:35;;;;;;;33.75;18.17;;;;;;;;;;6223162;23;20087;-92
2023/12/03 12:53:02;;;;;;;30.98;16.50;;;;;;;;;;6222260;23;20024;-94
2023/12/03 12:55:31;;;;;;;34.22;19.35;;;;;;;;;;6222997;23;20345;-93
2023/12/03 12:57:58;;;;;;;33.85;17.83;;;;;;;;;;6224650;23;20024;-93
2023/12/03 13:00:24;;;;;;;33.95;19.85;;;;;;;;;;6227373;23;20027;-93
2023/12/03 13:02:52;;;;;;;34.88;18.25;;;;;;;;;;6227361;23;20040;-91
2023/12/03 13:05:18;;;;;;;37.10;18.98;;;;;;;;;;6225509;23;20027;-92
2023/12/03 13:11:08;;;;;;;33.05;18.13;;;;;;;;;;6250527;23;20063;-90
2023/12/03 13:13:34;;;;;;;32.05;18.08;;;;;;;;;;6230943;23;20028;-90
2023/12/03 13:16:01;;;;;;;31.55;17.58;;;;;;;;;;6228746;23;20337;-90
2023/12/03 13:18:28;;;;;;;38.33;19.27;;;;;;;;;;6228608;23;20055;-90
2023/12/03 13:20:54;;;;;;;32.83;19.23;;;;;;;;;;6226576;23;20020;-90
2023/12/03 13:23:23;;;;;;;37.55;19.70;;;;;;;;;;6226086;23;20017;-90
2023/12/03 13:25:49;;;;;;;38.72;19.90;;;;;;;;;;6228959;23;20024;-89
2023/12/03 13:28:18;;;;;;;35.75;18.60;;;;;;;;;;6230518;23;20020;-90
2023/12/03 13:30:47;;;;;;;38.05;19.00;;;;;;;;;;6206294;23;20062;-89
2023/12/03 13:33:16;;;;;;;42.80;20.80;;;;;;;;;;6222983;23;20449;-89
2023/12/03 13:35:42;;;;;;;38.42;19.35;;;;;;;;;;6218459;23;20016;-89
2023/12/03 13:38:11;;;;;;;35.83;20.55;;;;;;;;;;6219378;23;20020;-88
2023/12/03 13:40:37;;;;;;;34.50;20.30;;;;;;;;;;6218906;23;20066;-89
2023/12/03 13:43:06;;;;;;;41.92;20.08;;;;;;;;;;6219283;23;20103;-89
2023/12/03 13:45:32;;;;;;;33.70;19.65;;;;;;;;;;6194637;23;20503;-90
2023/12/03 13:47:58;;;;;;;37.25;18.85;;;;;;;;;;6226026;23;20024;-90
2023/12/03 13:50:24;;;;;;;37.97;20.88;;;;;;;;;;6228983;23;20464;-89
2023/12/03 13:52:51;;;;;;;39.15;20.38;;;;;;;;;;6203230;23;20028;-88
2023/12/03 13:55:18;;;;;;;33.15;18.65;;;;;;;;;;6223010;23;20020;-90
2023/12/03 13:57:47;;;;;;;38.20;21.00;;;;;;;;;;6219886;23;20075;-89
2023/12/03 14:00:16;;;;;;;37.10;18.88;;;;;;;;;;6219884;23;20027;-90
2023/12/03 14:02:42;;;;;;;39.20;21.27;;;;;;;;;;6217263;23;20098;-90
2023/12/03 14:05:09;;;;;;;33.20;18.80;;;;;;;;;;6217382;23;20024;-91
2023/12/03 14:07:35;;;;;;;36.35;19.75;;;;;;;;;;6218533;23;20020;-90
2023/12/03 14:10:02;;;;;;;40.45;20.88;;;;;;;;;;6218961;23;20027;-89
2023/12/03 14:12:30;;;;;;;41.10;22.08;;;;;;;;;;6220570;23;20066;-89
2023/12/03 14:14:56;;;;;;;41.88;20.80;;;;;;;;;;6219734;23;20083;-91
2023/12/03 14:17:22;;;;;;;38.63;20.08;;;;;;;;;;6223985;23;20027;-90
2023/12/03 14:19:52;;;;;;;37.35;19.45;;;;;;;;;;6225247;23;20028;-90
2023/12/03 14:22:18;;;;;;;38.67;20.20;;;;;;;;;;6225381;23;20469;-91
2023/12/03 14:24:47;;;;;;;40.03;20.50;;;;;;;;;;6222891;23;20027;-90
2023/12/03 14:27:13;;;;;;;42.17;21.17;;;;;;;;;;6223815;23;20083;-90
2023/12/03 14:29:39;;;;;;;40.03;21.40;;;;;;;;;;6219164;23;20512;-90
2023/12/03 14:32:11;;;;;;;40.30;21.40;;;;;;;;;;6223036;23;20027;-89
2023/12/03 14:34:43;;;;;;;38.55;20.67;;;;;;;;;;6223543;23;20031;-89
2023/12/03 14:37:10;;;;;;;34.72;19.83;;;;;;;;;;6223098;23;20515;-90
2023/12/03 14:39:39;;;;;;;43.20;23.52;;;;;;;;;;6221859;23;20026;-90
2023/12/03 14:42:09;;;;;;;46.05;21.35;;;;;;;;;;6221629;23;20518;-90
2023/12/03 14:44:44;;;;;;;42.70;21.42;;;;;;;;;;6248211;23;20031;-89
2023/12/03 14:47:16;;;;;;;41.70;21.55;;;;;;;;;;6224753;23;20024;-89
2023/12/03 14:49:46;;;;;;;39.33;19.83;;;;;;;;;;6195620;23;20025;-91
2023/12/03 14:52:15;;;;;;;41.88;19.58;;;;;;;;;;6163095;23;20088;-89
2023/12/03 14:54:52;;;;;;;34.13;19.80;;;;;;;;;;6213796;23;20020;-89
2023/12/03 14:57:29;;;;;;;37.03;19.58;;;;;;;;;;6186854;23;20477;-90
2023/12/03 14:59:59;;;;;;;39.92;21.17;;;;;;;;;;6223144;23;20028;-92
2023/12/03 15:02:30;;;;;;;37.35;20.67;;;;;;;;;;6172926;23;20040;-90
2023/12/03 15:05:15;;;;;;;40.28;19.00;;;;;;;;;;6170959;23;20020;-89
2023/12/03 15:07:45;;;;;;;43.50;23.65;;;;;;;;;;6192190;23;20052;-90